Time;durP1;ratioP1;P1;durP2;ratioP2;P2;SDS_P1;SDS_P2;PMS_P1;PMS_P2;Temp;Humidity;BMP_temperature;BMP_pressure;BME280_temperature;BME280_humidity;BME280_pressure;Samples;Min_cycle;Max_cycle;Signal;HPM_P1;HPM_P2
2023/08/19 00:00:16;;;;;;;2.25;1.60;;;;;;;22.06;100.00;98607.16;5074329;28;20020;-74
2023/08/19 00:02:43;;;;;;;2.45;1.65;;;;;;;22.00;100.00;98611.88;5067953;28;20042;-75
2023/08/19 00:05:09;;;;;;;3.05;1.50;;;;;;;21.95;100.00;98598.13;5052343;28;20036;-74
2023/08/19 00:07:35;;;;;;;3.13;1.55;;;;;;;21.87;100.00;98612.47;5065251;28;20096;-75
2023/08/19 00:10:02;;;;;;;3.38;1.98;;;;;;;21.85;100.00;98617.44;5074300;28;20021;-75
2023/08/19 00:12:28;;;;;;;6.68;1.98;;;;;;;21.86;100.00;98621.84;5061192;28;20024;-75
2023/08/19 00:14:55;;;;;;;4.10;1.80;;;;;;;21.87;100.00;98618.00;5074382;28;20036;-75
2023/08/19 00:17:21;;;;;;;5.70;2.03;;;;;;;21.82;100.00;98612.50;5059376;28;20068;-74
2023/08/19 00:19:47;;;;;;;5.03;2.10;;;;;;;21.76;100.00;98611.69;5067128;28;20016;-75
2023/08/19 00:22:12;;;;;;;4.85;1.50;;;;;;;21.73;100.00;98616.97;5061640;28;20054;-75
2023/08/19 00:24:38;;;;;;;3.13;1.88;;;;;;;21.88;100.00;98619.66;5056586;28;20023;-75
2023/08/19 00:27:03;;;;;;;5.07;1.88;;;;;;;21.82;100.00;98601.47;5056767;28;20028;-75
2023/08/19 00:29:28;;;;;;;3.30;1.98;;;;;;;21.80;100.00;98617.50;5072347;28;20033;-75
2023/08/19 00:31:54;;;;;;;4.50;1.90;;;;;;;21.80;100.00;98611.97;5074542;28;20025;-75
2023/08/19 00:34:19;;;;;;;6.55;1.98;;;;;;;21.85;100.00;98610.03;5057318;28;20047;-75
2023/08/19 00:36:45;;;;;;;5.85;2.10;;;;;;;21.71;100.00;98602.63;5056309;28;20059;-75
2023/08/19 00:39:10;;;;;;;5.15;1.92;;;;;;;21.69;100.00;98594.66;5073675;28;20060;-75
2023/08/19 00:41:35;;;;;;;3.78;2.15;;;;;;;21.75;100.00;98604.56;5065476;28;20435;-74
2023/08/19 00:44:01;;;;;;;2.92;2.10;;;;;;;21.70;100.00;98601.00;5066131;28;20099;-74
2023/08/19 00:46:26;;;;;;;3.97;2.20;;;;;;;21.62;100.00;98594.97;5072994;28;20024;-73
2023/08/19 00:48:52;;;;;;;4.38;2.08;;;;;;;21.60;100.00;98597.16;5070280;28;20370;-73
2023/08/19 00:51:17;;;;;;;5.15;1.95;;;;;;;21.62;100.00;98600.47;5068490;28;20395;-72
2023/08/19 00:53:43;;;;;;;3.97;1.80;;;;;;;21.55;100.00;98607.38;5067162;28;20059;-73
2023/08/19 00:56:10;;;;;;;3.08;2.03;;;;;;;21.49;100.00;98589.22;5056131;28;20020;-73
2023/08/19 00:58:35;;;;;;;3.80;2.13;;;;;;;21.45;100.00;98610.97;5056822;28;20020;-73
2023/08/19 01:01:01;;;;;;;3.97;1.90;;;;;;;21.30;100.00;98614.56;5068295;28;20021;-73
2023/08/19 01:04:13;;;;;;;8.07;2.20;;;;;;;21.23;100.00;98625.84;5053553;28;20171;-73
2023/08/19 01:06:56;;;;;;;8.18;2.10;;;;;;;21.17;100.00;98612.38;5069366;28;20027;-72
2023/08/19 01:09:37;;;;;;;4.55;2.08;;;;;;;21.08;100.00;98611.28;5060215;28;20028;-74
2023/08/19 01:12:12;;;;;;;2.83;1.73;;;;;;;21.10;100.00;98607.16;5078250;28;20393;-74
2023/08/19 01:14:50;;;;;;;3.42;2.15;;;;;;;21.23;100.00;98609.34;5074139;28;20433;-74
2023/08/19 01:17:21;;;;;;;5.85;2.10;;;;;;;21.28;100.00;98599.44;5073801;28;20024;-74
2023/08/19 01:19:48;;;;;;;4.07;1.83;;;;;;;21.14;100.00;98583.50;5075552;28;20027;-74
2023/08/19 01:22:21;;;;;;;5.30;2.30;;;;;;;21.16;100.00;98600.53;5075909;28;20111;-74
2023/08/19 01:24:47;;;;;;;3.78;2.20;;;;;;;21.04;100.00;98589.03;5078356;28;20024;-75
2023/08/19 01:27:25;;;;;;;8.32;2.10;;;;;;;20.92;100.00;98588.47;5076420;28;20100;-75
2023/08/19 01:29:51;;;;;;;3.00;1.90;;;;;;;20.86;100.00;98597.84;5071634;28;20027;-75
2023/08/19 01:32:18;;;;;;;4.93;1.80;;;;;;;20.73;100.00;98591.78;5056089;28;20021;-75
2023/08/19 01:34:46;;;;;;;4.57;1.95;;;;;;;20.75;100.00;98602.47;5056288;28;20021;-75
2023/08/19 01:37:17;;;;;;;6.97;2.65;;;;;;;20.69;100.00;98596.16;5063243;28;20017;-74
2023/08/19 01:39:44;;;;;;;6.72;2.33;;;;;;;20.61;100.00;98584.91;5076241;28;20036;-74
2023/08/19 01:42:10;;;;;;;4.07;1.73;;;;;;;20.58;100.00;98611.00;5072107;28;20025;-75
2023/08/19 01:44:37;;;;;;;2.75;2.15;;;;;;;20.43;100.00;98599.97;5076860;28;20060;-74
2023/08/19 01:47:18;;;;;;;5.82;2.28;;;;;;;20.54;100.00;98620.88;5073899;28;20382;-75
2023/08/19 01:49:43;;;;;;;4.88;2.30;;;;;;;20.47;100.00;98614.81;5066729;28;20474;-75
2023/08/19 01:52:11;;;;;;;3.58;2.08;;;;;;;20.31;100.00;98603.81;5074588;28;20028;-75
2023/08/19 01:54:36;;;;;;;6.22;2.15;;;;;;;20.31;100.00;98617.53;5050117;28;20116;-74
2023/08/19 01:57:02;;;;;;;2.67;1.98;;;;;;;20.31;100.00;98616.72;5053630;28;20063;-74
2023/08/19 01:59:27;;;;;;;2.63;2.00;;;;;;;20.19;100.00;98611.47;5075709;28;20035;-74
2023/08/19 02:01:53;;;;;;;7.70;2.40;;;;;;;20.29;100.00;98624.41;5068534;28;20438;-74
2023/08/19 02:04:18;;;;;;;5.80;2.30;;;;;;;20.21;100.00;98608.47;5071578;28;20051;-74
2023/08/19 02:06:43;;;;;;;4.10;2.10;;;;;;;20.22;100.00;98621.91;5056896;28;20012;-74
2023/08/19 02:09:08;;;;;;;6.13;2.47;;;;;;;20.21;100.00;98622.19;5074985;28;20028;-74
2023/08/19 02:11:34;;;;;;;3.08;2.25;;;;;;;20.21;100.00;98630.44;5074948;28;20048;-74
2023/08/19 02:14:00;;;;;;;3.65;2.00;;;;;;;20.12;100.00;98621.88;5073942;28;20398;-74
2023/08/19 02:16:25;;;;;;;6.18;2.38;;;;;;;20.09;100.00;98625.16;5074978;28;20036;-74
2023/08/19 02:18:50;;;;;;;5.57;2.40;;;;;;;20.02;100.00;98641.09;5074810;28;20428;-74
2023/08/19 02:21:15;;;;;;;6.10;2.58;;;;;;;19.90;100.00;98631.13;5074217;28;20032;-74
2023/08/19 02:23:41;;;;;;;7.38;2.50;;;;;;;19.92;100.00;98633.63;5041538;28;20039;-74
2023/08/19 02:26:06;;;;;;;3.67;2.25;;;;;;;19.92;100.00;98628.97;5044758;28;20151;-74
2023/08/19 02:28:31;;;;;;;6.28;2.47;;;;;;;19.90;100.00;98635.81;5072938;28;20024;-74
2023/08/19 02:31:01;;;;;;;4.38;2.25;;;;;;;19.79;100.00;98634.94;5055447;28;20020;-74
2023/08/19 02:33:26;;;;;;;3.83;2.40;;;;;;;19.80;100.00;98644.00;5052145;28;20067;-74
2023/08/19 02:35:52;;;;;;;6.50;2.17;;;;;;;19.75;100.00;98644.78;5063143;28;20025;-74
2023/08/19 02:38:17;;;;;;;7.65;2.53;;;;;;;19.73;100.00;98647.00;5073853;28;20017;-74
2023/08/19 02:40:48;;;;;;;6.50;2.40;;;;;;;19.66;100.00;98632.66;5067930;28;20078;-74
2023/08/19 02:43:14;;;;;;;5.80;2.60;;;;;;;19.69;100.00;98646.69;5073777;28;20028;-74
2023/08/19 02:45:40;;;;;;;5.00;2.70;;;;;;;19.66;100.00;98646.38;5066700;28;20035;-74
2023/08/19 02:48:06;;;;;;;4.72;2.20;;;;;;;19.67;100.00;98642.56;5055124;28;20540;-74
2023/08/19 02:50:32;;;;;;;4.40;2.65;;;;;;;19.67;100.00;98642.56;5074323;28;20029;-74
2023/08/19 02:52:57;;;;;;;6.25;2.58;;;;;;;19.56;100.00;98630.69;5074935;28;20028;-75
2023/08/19 02:55:22;;;;;;;5.82;2.45;;;;;;;19.47;100.00;98632.28;5073631;28;20020;-74
2023/08/19 02:57:48;;;;;;;8.13;2.45;;;;;;;19.53;100.00;98649.59;5054862;28;20493;-74
2023/08/19 03:00:15;;;;;;;3.50;2.53;;;;;;;19.43;100.00;98637.47;5066154;28;20055;-74
2023/08/19 03:02:40;;;;;;;2.90;2.53;;;;;;;19.55;100.00;98644.69;5070132;28;20081;-74
2023/08/19 03:05:06;;;;;;;5.72;2.75;;;;;;;19.45;100.00;98640.78;5057267;28;20025;-74
2023/08/19 03:07:31;;;;;;;4.65;2.67;;;;;;;19.46;100.00;98631.44;5039128;28;20131;-74
2023/08/19 03:09:56;;;;;;;5.03;2.78;;;;;;;19.37;100.00;98638.53;5068301;28;20032;-74
2023/08/19 03:12:22;;;;;;;4.78;2.15;;;;;;;19.41;100.00;98645.16;5062154;28;20383;-74
2023/08/19 03:14:47;;;;;;;5.18;2.20;;;;;;;19.38;100.00;98640.16;5072094;28;20024;-74
2023/08/19 03:17:12;;;;;;;3.58;2.17;;;;;;;19.44;100.00;98643.75;5072574;28;20418;-74
2023/08/19 03:19:37;;;;;;;5.03;2.58;;;;;;;19.42;100.00;98648.72;5068972;28;20096;-75
2023/08/19 03:22:03;;;;;;;5.68;2.20;;;;;;;19.38;100.00;98639.34;5054158;28;20127;-74
2023/08/19 03:24:28;;;;;;;3.67;2.20;;;;;;;19.36;100.00;98636.88;5072929;28;20023;-74
2023/08/19 03:26:53;;;;;;;3.22;2.33;;;;;;;19.29;100.00;98639.03;5067160;28;20013;-74
2023/08/19 03:29:19;;;;;;;7.18;2.38;;;;;;;19.25;100.00;98637.88;5072097;28;20059;-74
2023/08/19 03:31:44;;;;;;;3.55;2.40;;;;;;;19.24;100.00;98655.44;5072316;28;20020;-74
2023/08/19 03:34:09;;;;;;;4.43;2.10;;;;;;;19.14;100.00;98641.66;5072105;28;20450;-74
2023/08/19 03:36:34;;;;;;;5.28;2.50;;;;;;;19.10;100.00;98641.38;5069540;28;20028;-75
2023/08/19 03:39:00;;;;;;;6.20;3.15;;;;;;;19.05;100.00;98649.56;5074969;28;20032;-74
2023/08/19 03:41:25;;;;;;;6.38;2.70;;;;;;;18.95;100.00;98636.59;5065284;28;20162;-74
2023/08/19 03:43:50;;;;;;;5.25;2.72;;;;;;;18.96;100.00;98651.94;5070103;28;20395;-74
2023/08/19 03:46:15;;;;;;;4.38;2.85;;;;;;;18.91;100.00;98640.09;5051587;28;20025;-74
2023/08/19 03:48:41;;;;;;;3.45;2.65;;;;;;;18.97;100.00;98652.78;5064852;28;20479;-74
2023/08/19 03:51:06;;;;;;;6.18;2.90;;;;;;;18.91;100.00;98651.88;5072018;28;20032;-74
2023/08/19 03:53:31;;;;;;;7.28;2.60;;;;;;;18.97;100.00;98655.53;5053338;28;20394;-74
2023/08/19 03:55:56;;;;;;;9.80;3.50;;;;;;;18.93;100.00;98651.66;5052718;28;20024;-74
2023/08/19 03:58:22;;;;;;;7.28;2.80;;;;;;;18.78;100.00;98642.19;5051983;28;20033;-74
2023/08/19 04:00:47;;;;;;;5.13;2.45;;;;;;;18.88;100.00;98655.16;5052974;28;20537;-73
2023/08/19 04:03:13;;;;;;;4.00;2.70;;;;;;;18.77;100.00;98662.47;5069438;28;20020;-74
2023/08/19 04:05:38;;;;;;;4.97;2.50;;;;;;;18.72;100.00;98670.63;5070779;28;20111;-74
2023/08/19 04:08:04;;;;;;;5.72;2.90;;;;;;;18.73;100.00;98665.94;5064349;28;20096;-73
2023/08/19 04:10:29;;;;;;;6.25;2.92;;;;;;;18.71;100.00;98651.72;5037128;28;20032;-74
2023/08/19 04:12:54;;;;;;;5.18;2.75;;;;;;;18.77;100.00;98657.00;5053784;28;20021;-80
2023/08/19 04:15:20;;;;;;;6.15;3.05;;;;;;;18.53;100.00;98634.53;5063525;28;20103;-77
2023/08/19 04:17:47;;;;;;;5.60;2.88;;;;;;;18.71;100.00;98666.22;5057851;28;20107;-77
2023/08/19 04:20:13;;;;;;;4.00;2.70;;;;;;;18.74;100.00;98675.84;5059025;28;20078;-78
2023/08/19 04:22:39;;;;;;;5.95;2.58;;;;;;;18.61;100.00;98663.38;5077232;28;20455;-77
2023/08/19 04:25:04;;;;;;;4.95;2.83;;;;;;;18.62;100.00;98674.06;5077042;28;20027;-78
2023/08/19 04:27:31;;;;;;;3.38;2.35;;;;;;;18.51;100.00;98663.28;5058375;28;20081;-79
2023/08/19 04:29:56;;;;;;;5.30;2.58;;;;;;;18.33;100.00;98653.50;5054767;28;20024;-81
2023/08/19 04:32:22;;;;;;;5.32;3.08;;;;;;;18.45;100.00;98681.59;5069800;28;20383;-78
2023/08/19 04:34:48;;;;;;;4.90;3.10;;;;;;;18.35;100.00;98678.72;5058649;28;20448;-79
2023/08/19 04:37:13;;;;;;;6.20;3.03;;;;;;;18.38;100.00;98692.72;5058271;28;20031;-80
2023/08/19 04:39:38;;;;;;;3.95;2.78;;;;;;;18.40;100.00;98684.28;5068149;28;20036;-78
2023/08/19 04:42:04;;;;;;;4.03;2.80;;;;;;;18.41;100.00;98677.69;5054979;28;20402;-79
2023/08/19 04:44:30;;;;;;;4.07;3.10;;;;;;;18.62;100.00;98697.91;5057654;28;20020;-79
2023/08/19 04:46:55;;;;;;;7.38;3.17;;;;;;;18.58;100.00;98672.94;5054572;28;20051;-78
2023/08/19 04:49:20;;;;;;;6.38;3.58;;;;;;;18.67;100.00;98678.78;5058856;28;20095;-79
2023/08/19 04:51:46;;;;;;;7.00;2.95;;;;;;;18.74;100.00;98673.09;5059356;28;20379;-79
2023/08/19 04:54:11;;;;;;;5.20;2.90;;;;;;;18.78;100.00;98685.22;5061401;28;20028;-82
2023/08/19 04:56:37;;;;;;;13.02;3.30;;;;;;;18.88;100.00;98679.00;5061908;28;20024;-79
2023/08/19 04:59:02;;;;;;;5.18;3.08;;;;;;;18.93;100.00;98682.63;5058209;28;20032;-79
2023/08/19 05:01:28;;;;;;;6.60;3.20;;;;;;;18.97;100.00;98672.81;5074337;28;20023;-79
2023/08/19 05:03:54;;;;;;;8.25;3.00;;;;;;;19.07;100.00;98682.19;5056807;28;20020;-80
2023/08/19 05:06:20;;;;;;;8.45;3.50;;;;;;;19.10;100.00;98676.16;5070861;28;20062;-72
2023/08/19 05:08:45;;;;;;;8.40;3.08;;;;;;;19.04;100.00;98662.41;5072881;28;20059;-73
2023/08/19 05:11:10;;;;;;;6.90;3.55;;;;;;;19.17;100.00;98679.53;5054191;28;20137;-78
2023/08/19 05:13:36;;;;;;;8.65;4.03;;;;;;;19.12;100.00;98668.50;5068653;28;20517;-72
2023/08/19 05:16:02;;;;;;;6.18;3.30;;;;;;;19.17;100.00;98687.75;5070062;28;20028;-72
2023/08/19 05:18:28;;;;;;;5.07;3.08;;;;;;;19.19;100.00;98682.84;5068669;28;20090;-76
2023/08/19 05:20:53;;;;;;;5.43;3.05;;;;;;;19.27;100.00;98680.44;5058940;28;20024;-78
2023/08/19 05:23:19;;;;;;;4.90;3.15;;;;;;;19.43;100.00;98680.53;5058193;28;20056;-79
2023/08/19 05:25:44;;;;;;;4.97;3.17;;;;;;;19.48;100.00;98664.94;5068163;28;20031;-81
2023/08/19 05:28:10;;;;;;;8.00;2.72;;;;;;;19.64;100.00;98686.97;5068572;28;21295;-81
2023/08/19 05:30:35;;;;;;;4.32;2.85;;;;;;;19.61;100.00;98673.78;5091777;28;20028;-81
2023/08/19 05:33:01;;;;;;;5.25;2.53;;;;;;;19.63;100.00;98679.84;5066266;28;20021;-80
2023/08/19 05:35:26;;;;;;;3.55;2.50;;;;;;;19.61;100.00;98677.34;5068915;28;20123;-83
2023/08/19 05:37:52;;;;;;;7.40;2.70;;;;;;;19.63;100.00;98690.84;5067254;28;20044;-76
2023/08/19 05:40:17;;;;;;;4.43;2.60;;;;;;;19.59;100.00;98693.25;5091110;28;20024;-77
2023/08/19 05:42:42;;;;;;;5.53;2.67;;;;;;;19.54;100.00;98670.44;5078280;28;20139;-77
2023/08/19 05:45:08;;;;;;;5.38;2.70;;;;;;;19.80;100.00;98694.22;5069703;28;20071;-77
2023/08/19 05:47:33;;;;;;;5.85;3.33;;;;;;;19.99;100.00;98680.91;5066882;28;20021;-78
2023/08/19 05:49:59;;;;;;;4.53;2.53;;;;;;;20.45;100.00;98688.47;5057258;28;20029;-76
2023/08/19 05:52:24;;;;;;;4.30;2.30;;;;;;;20.86;100.00;98675.66;5061798;28;20036;-77
2023/08/19 05:54:50;;;;;;;4.65;2.50;;;;;;;21.44;100.00;98686.41;5062010;28;20666;-80
2023/08/19 05:57:15;;;;;;;4.88;2.78;;;;;;;21.76;100.00;98674.22;5063960;28;20390;-76
2023/08/19 05:59:40;;;;;;;3.72;2.70;;;;;;;21.99;100.00;98676.34;5075327;28;20069;-71
2023/08/19 06:02:06;;;;;;;6.43;2.80;;;;;;;22.47;100.00;98682.19;5071057;28;20040;-71
2023/08/19 06:04:31;;;;;;;4.18;2.60;;;;;;;23.75;100.00;98670.16;5070013;28;20029;-72
2023/08/19 06:06:57;;;;;;;7.97;2.70;;;;;;;26.44;100.00;98675.56;5062277;28;20032;-71
2023/08/19 06:09:22;;;;;;;5.72;2.60;;;;;;;28.62;100.00;98672.94;5054824;28;20029;-71
2023/08/19 06:11:50;;;;;;;6.95;2.47;;;;;;;30.31;100.00;98683.13;5075339;28;20035;-71
2023/08/19 06:14:16;;;;;;;5.63;2.30;;;;;;;30.61;99.74;98667.16;5063107;28;20103;-71
2023/08/19 06:16:42;;;;;;;4.30;2.28;;;;;;;31.88;90.87;98683.41;5050471;28;20040;-71
2023/08/19 06:19:07;;;;;;;4.25;2.40;;;;;;;33.03;81.64;98672.28;5067151;28;20025;-71
2023/08/19 06:21:32;;;;;;;5.65;2.50;;;;;;;33.16;76.12;98673.88;5074917;28;20466;-71
2023/08/19 06:23:58;;;;;;;7.93;2.03;;;;;;;33.59;73.71;98666.69;5079344;28;20028;-79
2023/08/19 06:26:23;;;;;;;7.43;2.17;;;;;;;34.41;71.12;98656.69;5067321;28;20055;-76
2023/08/19 06:28:49;;;;;;;3.00;2.05;;;;;;;35.72;65.57;98679.56;5068231;28;20382;-78
2023/08/19 06:31:14;;;;;;;2.75;1.83;;;;;;;35.77;63.24;98673.63;5076484;28;20039;-78
2023/08/19 06:33:40;;;;;;;2.33;1.67;;;;;;;36.29;61.77;98689.00;5079161;28;20036;-71
2023/08/19 06:36:07;;;;;;;5.95;2.20;;;;;;;37.10;59.83;98693.44;5051437;28;20058;-72
2023/08/19 06:38:34;;;;;;;6.05;1.95;;;;;;;37.43;56.98;98686.16;5062984;28;20075;-78
2023/08/19 06:41:09;;;;;;;6.90;2.05;;;;;;;37.29;57.56;98686.81;5052994;28;20222;-77
2023/08/19 06:43:39;;;;;;;5.47;2.00;;;;;;;36.62;56.72;98690.31;5065222;28;20093;-76
2023/08/19 06:46:06;;;;;;;7.72;1.92;;;;;;;36.30;57.53;98704.72;5073276;28;20633;-76
2023/08/19 06:48:32;;;;;;;3.10;1.88;;;;;;;37.36;56.65;98703.78;5068326;28;20082;-78
2023/08/19 06:51:01;;;;;;;4.40;1.70;;;;;;;38.36;53.86;98709.69;5055639;28;20024;-77
2023/08/19 06:53:26;;;;;;;;;;;;;;;38.97;51.69;98710.94;5068978;28;20028;-80
2023/08/19 06:56:00;;;;;;;4.65;1.73;;;;;;;38.90;50.35;98710.88;5067564;28;19911;-78
2023/08/19 06:58:29;;;;;;;5.40;1.83;;;;;;;39.19;48.89;98717.47;5067162;28;20035;-78
2023/08/19 07:01:03;;;;;;;3.30;1.65;;;;;;;40.03;47.81;98717.34;5081637;28;20071;-77
2023/08/19 07:03:32;;;;;;;3.58;1.80;;;;;;;39.66;48.38;98723.34;5060487;28;20028;-78
2023/08/19 07:05:59;;;;;;;3.97;1.60;;;;;;;40.49;44.32;98718.59;5048645;28;20035;-80
2023/08/19 07:08:28;;;;;;;3.33;1.55;;;;;;;40.61;44.98;98709.66;5058894;28;20087;-79
2023/08/19 07:10:54;;;;;;;3.90;1.80;;;;;;;40.28;45.02;98714.56;5074555;28;20108;-79
2023/08/19 07:13:19;;;;;;;4.00;1.70;;;;;;;41.27;43.89;98711.94;5056739;28;20079;-79
2023/08/19 07:15:51;;;;;;;4.28;1.50;;;;;;;41.54;42.55;98709.41;5070115;28;20024;-79
2023/08/19 07:18:20;;;;;;;3.63;1.67;;;;;;;41.63;41.52;98716.66;5073392;28;20021;-77
2023/08/19 07:20:45;;;;;;;3.33;1.42;;;;;;;41.69;42.40;98706.47;5070329;28;20031;-77
2023/08/19 07:23:12;;;;;;;3.20;1.63;;;;;;;42.14;40.89;98717.97;5068763;28;20028;-77
2023/08/19 07:25:39;;;;;;;4.55;1.75;;;;;;;42.33;38.82;98710.88;5076560;28;20463;-77
2023/08/19 07:28:05;;;;;;;4.78;1.67;;;;;;;41.92;40.09;98715.28;5076716;28;20031;-78
2023/08/19 07:30:31;;;;;;;2.50;1.40;;;;;;;41.29;40.28;98714.34;5062164;28;20021;-78
2023/08/19 07:32:56;;;;;;;5.40;1.70;;;;;;;41.95;39.58;98722.97;5047260;28;21792;-78
2023/08/19 07:35:22;;;;;;;5.13;1.40;;;;;;;42.27;38.48;98719.06;5048974;28;20028;-81
2023/08/19 07:37:48;;;;;;;3.67;1.60;;;;;;;41.83;39.60;98709.22;5056867;28;20282;-81
2023/08/19 07:40:13;;;;;;;5.85;1.40;;;;;;;42.33;39.21;98711.69;5062787;28;20666;-76
2023/08/19 07:42:38;;;;;;;4.60;1.50;;;;;;;42.91;38.20;98706.28;5064424;28;20021;-75
2023/08/19 07:45:05;;;;;;;3.50;1.50;;;;;;;42.21;39.84;98717.88;5068563;28;20284;-75
2023/08/19 07:47:30;;;;;;;3.95;1.60;;;;;;;42.95;38.42;98721.28;5051490;28;20028;-74
2023/08/19 07:49:56;;;;;;;8.35;1.65;;;;;;;42.23;38.89;98716.22;5047249;28;20024;-74
2023/08/19 07:52:21;;;;;;;6.90;1.60;;;;;;;42.64;37.78;98721.16;5063785;28;20020;-74
2023/08/19 07:54:46;;;;;;;6.78;1.65;;;;;;;42.50;37.54;98718.47;5072554;28;20035;-74
2023/08/19 07:57:11;;;;;;;4.03;1.47;;;;;;;41.68;38.36;98722.69;5063507;28;20037;-74
2023/08/19 07:59:37;;;;;;;2.63;1.40;;;;;;;41.62;38.22;98715.03;5073152;28;20625;-74
2023/08/19 08:02:02;;;;;;;3.88;1.30;;;;;;;42.14;37.42;98713.06;5066021;28;20033;-75
2023/08/19 08:04:28;;;;;;;3.47;1.70;;;;;;;43.05;37.25;98728.06;5059907;28;20037;-74
2023/08/19 08:06:54;;;;;;;4.10;1.70;;;;;;;43.07;36.60;98725.59;5067174;28;20025;-74
2023/08/19 08:09:19;;;;;;;3.65;1.90;;;;;;;43.59;36.71;98713.19;5068909;28;20051;-74
2023/08/19 08:11:45;;;;;;;5.93;1.43;;;;;;;44.88;35.25;98726.16;5069320;28;20035;-74
2023/08/19 08:14:10;;;;;;;5.38;1.60;;;;;;;42.86;36.55;98718.91;5075079;28;20263;-74
2023/08/19 08:16:36;;;;;;;4.72;1.60;;;;;;;43.45;36.50;98725.56;5054607;28;20032;-74
2023/08/19 08:19:01;;;;;;;3.28;1.70;;;;;;;42.80;37.40;98726.31;5075718;28;20032;-74
2023/08/19 08:21:27;;;;;;;3.97;1.38;;;;;;;44.43;35.15;98729.41;5068738;28;20033;-74
2023/08/19 08:23:54;;;;;;;2.97;1.38;;;;;;;44.03;35.60;98714.19;5066089;28;20028;-74
2023/08/19 08:26:20;;;;;;;7.07;1.87;;;;;;;44.37;35.09;98725.47;5070930;28;20028;-74
2023/08/19 08:28:45;;;;;;;5.30;1.73;;;;;;;43.43;35.28;98728.84;5058423;28;20028;-74
2023/08/19 08:31:10;;;;;;;4.13;1.75;;;;;;;42.87;36.62;98711.22;5046048;28;20021;-74
2023/08/19 08:33:36;;;;;;;2.50;1.57;;;;;;;42.48;37.47;98718.09;5072795;28;20036;-74
2023/08/19 08:36:01;;;;;;;7.45;1.75;;;;;;;42.75;36.45;98706.03;5066741;28;20282;-74
2023/08/19 08:38:26;;;;;;;6.10;1.90;;;;;;;44.33;35.72;98727.53;5063801;28;20027;-74
2023/08/19 08:40:52;;;;;;;4.40;1.45;;;;;;;43.20;36.17;98715.28;5046247;28;20082;-74
2023/08/19 08:43:18;;;;;;;4.43;1.60;;;;;;;44.11;35.47;98709.97;5076193;28;20024;-74
2023/08/19 08:45:44;;;;;;;4.25;1.50;;;;;;;44.29;35.07;98718.25;5070292;28;20091;-74
2023/08/19 08:48:11;;;;;;;3.75;1.25;;;;;;;44.40;35.28;98716.03;5066271;28;20402;-74
2023/08/19 08:50:36;;;;;;;9.82;1.92;;;;;;;44.17;35.63;98713.94;5065101;28;20021;-75
2023/08/19 08:53:02;;;;;;;5.53;1.70;;;;;;;43.80;35.44;98726.31;5054403;28;20402;-75
2023/08/19 08:55:27;;;;;;;4.95;1.58;;;;;;;43.12;36.09;98714.53;5065186;28;20394;-74
2023/08/19 08:57:52;;;;;;;6.40;1.75;;;;;;;45.03;34.86;98721.78;5065933;28;20032;-75
2023/08/19 09:00:18;;;;;;;5.00;1.67;;;;;;;45.88;34.19;98726.94;5063193;28;20036;-75
2023/08/19 09:02:45;;;;;;;4.28;1.58;;;;;;;44.94;34.48;98724.44;5071484;28;20291;-74
2023/08/19 09:05:12;;;;;;;7.20;2.20;;;;;;;44.82;34.59;98728.72;5071256;28;20034;-74
2023/08/19 09:07:39;;;;;;;8.73;2.10;;;;;;;44.01;35.83;98725.22;5068468;28;20486;-74
2023/08/19 09:10:13;;;;;;;3.53;1.58;;;;;;;44.25;35.18;98724.00;5067789;28;20025;-75
2023/08/19 09:12:42;;;;;;;6.00;1.70;;;;;;;45.58;33.62;98710.06;5093428;28;20436;-74
2023/08/19 09:15:10;;;;;;;6.90;1.65;;;;;;;45.22;34.73;98725.09;5048758;28;20032;-74
2023/08/19 09:17:36;;;;;;;4.40;1.85;;;;;;;44.59;34.93;98725.88;5068988;28;20070;-74
2023/08/19 09:20:03;;;;;;;2.10;1.30;;;;;;;45.69;33.69;98714.28;5068683;28;20032;-74
2023/08/19 09:22:28;;;;;;;9.67;2.63;;;;;;;45.42;33.78;98727.97;5061654;28;20028;-74
2023/08/19 09:24:54;;;;;;;4.15;1.40;;;;;;;45.80;33.60;98731.22;5059972;28;20328;-74
2023/08/19 09:27:25;;;;;;;3.83;1.73;;;;;;;44.45;34.48;98729.81;5068551;28;20042;-74
2023/08/19 09:29:50;;;;;;;7.97;2.00;;;;;;;45.86;33.90;98723.72;5050948;28;20422;-74
2023/08/19 09:32:16;;;;;;;6.00;1.63;;;;;;;46.01;33.43;98723.38;5073190;28;20024;-74
2023/08/19 09:34:42;;;;;;;8.68;2.40;;;;;;;46.59;32.55;98729.28;5063451;28;20158;-74
2023/08/19 09:37:09;;;;;;;6.30;1.87;;;;;;;46.45;32.63;98712.50;5072717;28;20120;-74
2023/08/19 09:39:34;;;;;;;5.03;1.77;;;;;;;47.32;31.39;98723.19;5066741;28;20313;-74
2023/08/19 09:42:00;;;;;;;5.35;1.63;;;;;;;46.93;31.78;98719.41;5067109;28;20500;-74
2023/08/19 09:44:29;;;;;;;2.85;1.60;;;;;;;45.65;32.89;98725.00;5068739;28;20478;-74
2023/08/19 09:46:56;;;;;;;3.97;1.60;;;;;;;46.11;32.71;98720.25;5065562;28;20025;-74
2023/08/19 09:49:22;;;;;;;6.60;1.50;;;;;;;47.13;31.79;98722.91;5062979;28;20020;-74
2023/08/19 09:51:55;;;;;;;4.45;1.70;;;;;;;46.80;31.95;98713.63;5078661;28;20094;-74
2023/08/19 09:54:20;;;;;;;6.30;1.90;;;;;;;46.68;32.14;98711.47;5062920;28;20478;-74
2023/08/19 09:56:57;;;;;;;3.42;1.75;;;;;;;46.65;31.80;98718.91;5062092;28;20111;-75
2023/08/19 09:59:26;;;;;;;4.07;1.63;;;;;;;47.73;30.46;98730.97;5055069;28;20035;-74
2023/08/19 10:01:53;;;;;;;6.45;1.85;;;;;;;47.13;31.03;98731.50;5057681;28;20458;-75
2023/08/19 10:04:21;;;;;;;4.53;1.88;;;;;;;47.80;31.00;98729.94;5063224;28;20066;-75
2023/08/19 10:06:50;;;;;;;3.78;1.67;;;;;;;46.92;31.48;98723.50;5058581;28;20029;-75
2023/08/19 10:09:20;;;;;;;5.50;1.95;;;;;;;47.51;32.33;98725.09;5068626;28;20056;-74
2023/08/19 10:11:50;;;;;;;5.55;1.73;;;;;;;47.77;30.25;98720.19;5060355;28;20034;-74
2023/08/19 10:14:20;;;;;;;6.63;1.80;;;;;;;48.09;30.64;98708.97;5066145;28;20024;-74
2023/08/19 10:16:49;;;;;;;3.08;1.48;;;;;;;47.95;31.16;98719.66;5059339;28;20033;-74
2023/08/19 10:19:18;;;;;;;9.63;2.17;;;;;;;47.69;30.24;98726.59;5071678;28;20046;-74
2023/08/19 10:21:46;;;;;;;4.13;1.75;;;;;;;47.04;31.16;98724.81;5058836;28;20029;-75
2023/08/19 10:24:11;;;;;;;;;;;;;;;47.78;30.30;98723.84;5069215;28;20119;-76
2023/08/19 10:26:38;;;;;;;9.70;1.95;;;;;;;48.30;29.59;98716.06;5063962;28;20011;-75
2023/08/19 10:29:07;;;;;;;2.88;1.30;;;;;;;47.21;30.04;98726.38;5067329;28;20081;-75
2023/08/19 10:31:34;;;;;;;7.68;1.80;;;;;;;47.48;29.78;98723.16;5069481;28;20038;-75
2023/08/19 10:34:10;;;;;;;3.83;1.83;;;;;;;48.09;30.37;98724.09;5069261;28;20123;-75
2023/08/19 10:36:35;;;;;;;5.70;1.80;;;;;;;48.41;31.35;98723.03;5054221;28;20048;-75
2023/08/19 10:39:00;;;;;;;3.58;1.45;;;;;;;49.35;30.34;98721.31;5068983;28;20174;-75
2023/08/19 10:41:28;;;;;;;6.37;1.77;;;;;;;49.91;29.84;98719.53;5066755;28;20032;-73
2023/08/19 10:43:56;;;;;;;3.83;1.60;;;;;;;50.49;29.43;98720.81;5076348;28;20263;-73
2023/08/19 10:46:34;;;;;;;5.90;2.28;;;;;;;51.67;28.74;98715.50;5072521;28;20039;-74
2023/08/19 10:49:05;;;;;;;5.53;1.80;;;;;;;51.14;27.65;98715.13;5054057;28;20048;-75
2023/08/19 10:51:53;;;;;;;6.35;1.67;;;;;;;52.43;26.41;98720.44;5054668;28;20119;-75
2023/08/19 10:54:35;;;;;;;7.93;1.90;;;;;;;52.36;26.23;98710.88;5071589;28;20081;-73
2023/08/19 10:57:15;;;;;;;3.85;1.40;;;;;;;49.47;28.46;98715.94;5066368;28;20104;-73
2023/08/19 10:59:42;;;;;;;5.57;1.55;;;;;;;50.50;28.19;98719.56;5067625;28;20497;-73
2023/08/19 11:02:09;;;;;;;3.33;1.58;;;;;;;49.47;27.99;98707.31;5063487;28;20103;-75
2023/08/19 11:04:39;;;;;;;5.13;1.77;;;;;;;50.53;27.46;98703.41;5069744;28;20052;-75
2023/08/19 11:07:07;;;;;;;4.07;1.52;;;;;;;50.75;28.42;98700.41;5070048;28;20119;-75
2023/08/19 11:09:32;;;;;;;9.15;1.83;;;;;;;50.38;29.22;98706.09;5068346;28;20145;-75
2023/08/19 11:11:58;;;;;;;4.10;1.70;;;;;;;51.08;28.74;98694.81;5065817;28;20366;-75
2023/08/19 11:14:24;;;;;;;7.80;1.50;;;;;;;51.33;28.76;98699.38;5071561;28;20029;-75
2023/08/19 11:16:51;;;;;;;5.32;2.25;;;;;;;50.92;28.40;98698.78;5062338;28;20024;-73
2023/08/19 11:19:17;;;;;;;;;;;;;;;51.34;28.17;98700.97;5073784;28;20035;-74
2023/08/19 11:21:43;;;;;;;3.47;1.33;;;;;;;51.77;27.91;98696.06;5054362;28;20456;-73
2023/08/19 11:24:09;;;;;;;4.40;1.80;;;;;;;52.19;27.89;98701.00;5071943;28;20387;-73
2023/08/19 11:26:42;;;;;;;5.43;1.67;;;;;;;52.14;27.53;98699.59;5055107;28;20287;-73